Whale Point, California Weather observations

Data are for observation ending at time listed.
 Day   Time    Ave.   Ave.  Ave.  Vector   Max.   Stn.    Total    Solar   Ave.  
  of    of     Air    Rel.  Wind   Wind    Wind   Baro.  Precip.   Rad.    Soil  
Year   Day     Temp.  Hum.  Speed  Dir.    Gust   Pres.                    Temp. 
2015   (PST)    F      %     mph   deg.    mph     mb.     in.     W/m2     F   
------------------------------------------------------------------------------
  60    3:40   49.2    67    1.7   112      5.3   990.9    0.00       0    57.4
  60    3:50   48.7    69    2.5   163      6.6   990.9    0.00       0    57.3
  60    4:00   48.7    68    1.9   202      5.6   990.9    0.00       0    57.3
  60    4:10   48.3    69    4.2   121      9.0   991.2    0.00       0    57.2
  60    4:20   48.0    69    4.5   122      8.3   991.2    0.00       0    57.2
  60    4:30   48.3    68    4.1   103     10.6   991.2    0.00       0    57.1
  60    4:40   48.7    66    3.4    97      7.4   991.5    0.00       0    57.1
  60    4:50   48.6    66    5.3    69      9.4   991.5    0.00       0    57.1
  60    5:00   48.6    65    6.1    55     10.5   991.5    0.00       0    57.0
  60    5:10   48.1    66    6.6    64      9.5   991.5    0.00       0    57.0
  60    5:20   48.3    65    7.1    55      9.6   991.5    0.00       0    56.9
  60    5:30   49.0    64    7.0    37      9.9   991.5    0.00       0    56.9
  60    5:40   48.5    65    5.9    35      8.4   991.5    0.00       0    56.9
  60    5:50   48.5    65    7.2    63     11.3   991.5    0.00       0    56.8
  60    6:00   48.6    64    6.9    52     10.3   991.9    0.00       0    56.8
  60    6:10   48.4    65    7.3    58     10.6   991.9    0.00       0    56.7
  60    6:20   47.9    66    6.8    48     10.4   991.9    0.00       0    56.6
  60    6:30   47.8    66    7.2    57     12.6   992.2    0.00       1    56.6
  60    6:40   48.0    65    6.2    49      9.7   992.2    0.00       3    56.5
  60    6:50   48.0    65    5.1    64     10.4   992.2    0.00       7    56.5
  60    7:00   48.4    64    3.4    55      9.1   992.2    0.00      11    56.4
  60    7:10   49.0    63    4.3    49     10.0   992.6    0.00      14    56.4
  60    7:20   49.4    62    4.9    51     11.5   992.6    0.00      16    56.3
  60    7:30   49.3    63    4.6    32     11.2   992.6    0.00      18    56.3
  60    7:40   49.8    62    5.1    46     10.7   992.6    0.00      19    56.2
  60    7:50   49.0    63    6.0    78      9.8   992.6    0.00      21    56.2
  60    8:00   49.4    62    4.4    71      9.9   992.9    0.00      22    56.1
  60    8:10   50.2    60    4.0    75      7.6   992.9    0.00      23    56.1
  60    8:20   50.3    59    3.1    85      6.1   992.9    0.00      25    56.0
  60    8:30   51.5    59    1.2   147      3.1   992.9    0.00     295    56.0
  60    8:40   53.2    55    0.4   252      1.8   992.9    0.00     393    55.9
  60    8:50   54.8    55    0.7   172      2.9   993.2    0.00     427    55.8
  60    9:00   55.0    60    1.9   162      2.7   993.2    0.00     458    55.7
  60    9:10   54.9    60    1.8   181      3.1   993.2    0.00     492    55.7
  60    9:20   54.0    61    2.1   201      3.4   993.2    0.00     523    55.7
  60    9:30   53.3    62    2.8   208      4.1   993.2    0.00     554    55.7
  60    9:40   53.1    62    3.1   204      4.5   993.2    0.00     583    55.6
  60    9:50   53.2    62    3.0   205      4.2   993.2    0.00     610    55.6
  60   10:00   53.7    62    3.2   201      4.5   993.2    0.00     636    55.5
  60   10:10   53.5    62    3.7   216      4.6   993.2    0.00     662    55.5
  60   10:20   53.6    62    3.3   208      4.5   993.2    0.00     685    55.5
  60   10:30   53.7    63    3.4   208      4.6   993.2    0.00     709    55.5
  60   10:40   53.9    59    3.3   213      5.1   993.2    0.00     733    55.5
  60   10:50   54.8    58    3.9   203      5.6   993.2    0.00     757    55.5
  60   11:00   55.3    58    4.8   210      6.7   993.2    0.00     772    55.5
  60   11:10   54.8    58    4.5   214      6.8   993.2    0.00     781    55.5
  60   11:20   55.5    58    5.0   218      6.6   993.2    0.00     799    55.5
  60   11:30   55.1    60    5.1   223      6.9   993.2    0.00     820    55.5
  60   11:40   55.2    62    4.5   222      7.5   993.2    0.00     823    55.5
  60   11:50   55.4    61    4.4   232      7.5   993.2    0.00     856    55.5
  60   12:00   55.5    60    4.9   224      7.4   993.2    0.00     876    55.6
  60   12:10   56.5    60    3.7   238      6.1   992.9    0.00     898    55.6
  60   12:20   57.3    57    3.1   269      7.5   992.9    0.00     904    55.7
  60   12:30   57.1    54    3.6   247      8.2   992.9    0.00     931    55.8
  60   12:40   57.6    53    3.3   290      6.5   992.9    0.00     941    55.8
  60   12:50   57.1    51    3.6   300      7.5   992.6    0.00     961    56.0
  60   13:00   57.6    52    4.1   284      7.1   992.6    0.00     926    56.1
  60   13:10   56.8    56    2.7   299      5.7   992.6    0.00     740    56.2
  60   13:20   56.3    54    3.3   308      6.9   992.6    0.00     873    56.3
  60   13:30   55.3    58    3.0   303      6.1   992.6    0.00     395    56.4
  60   13:40   54.4    63    2.4   294      5.3   992.2    0.00     489    56.6
  60   13:50   56.3    58    3.2   286      6.7   992.2    0.00     817    56.6
  60   14:00   57.0    52    3.6   295      8.0   992.2    0.00     681    56.8
  60   14:10   55.5    53    3.7   306      7.5   992.2    0.00     658    56.9
  60   14:20   56.5    52    4.2   307      8.0   992.2    0.00     811    57.1
  60   14:30   56.6    52    4.1   298      9.3   992.2    0.00     799    57.3
  60   14:40   57.3    53    4.3   293      8.6   992.2    0.00     757    57.4
  60   14:50   56.6    57    5.0   285     10.7   992.2    0.00     625    57.6
  60   15:00   55.3    62    6.3   266     13.9   992.2    0.00     552    57.8
  60   15:10   55.1    66    7.8   225     15.4   991.9    0.00     443    57.9
  60   15:20   53.7    70    3.1   207     12.0   991.9    0.00     162    58.1
  60   15:30   53.3    70    4.3   356     14.4   991.9    0.00     245    58.2
  60   15:40   54.2    68    2.9     1      9.1   991.9    0.00     342    58.4
  60   15:50   55.3    70    6.4   203     11.8   991.9    0.01     310    58.5
  60   16:00   52.6    80    3.7   229      7.6   991.9    0.03      72    58.7
  60   16:10   51.4    84    1.3   283      5.0   991.9    0.03      54    58.9
  60   16:20   51.2    84    3.1    53      6.2   991.9    0.00      51    59.0
  60   16:30   51.3    83    2.2    16      3.9   991.9    0.00      81    59.1
  60   16:40   51.1    85    2.1    57      3.7   991.5    0.00     107    59.3
  60   16:50   51.8    82    1.9    66      4.7   991.5    0.00     100    59.3
  60   17:00   51.9    80    1.3    38      3.8   991.9    0.00      92    59.5
  60   17:10   52.6    74    3.0    32      8.3   991.9    0.00     167    59.5
  60   17:20   53.6    67    3.4    30      5.7   991.9    0.00     176    59.6
  60   17:30   54.3    64    1.8    46      5.5   991.9    0.00     144    59.7
  60   17:40   54.4    63    1.0    87      3.0   991.9    0.00      66    59.8
  60   17:50   53.2    65    1.7    65      3.4   991.9    0.00      43    59.8
  60   18:00   52.6    61    3.2    39      6.0   991.9    0.00      18    59.9
  60   18:10   52.8    59    3.2    46      7.2   991.9    0.00       4    59.9
  60   18:20   52.1    71    1.0    93      4.0   991.9    0.00       1    60.0
  60   18:30   51.2    78    4.4    68      7.3   992.2    0.00       0    60.0
  60   18:40   50.7    82    3.6    57      5.1   992.2    0.00       0    60.0
  60   18:50   50.6    80    4.8    71      6.6   992.2    0.00       0    60.0
  60   19:00   50.8    80    2.7    69      5.8   992.2    0.00       0    60.1
  60   19:10   50.2    82    4.5    45      6.1   992.6    0.00       0    60.1
  60   19:20   50.7    80    4.1    35      7.9   992.6    0.00       0    60.1
  60   19:30   51.0    78    3.4    43      6.1   992.9    0.00       0    60.1
  60   19:40   51.4    78    3.0    36      5.6   992.9    0.00       0    60.0
  60   19:50   51.7    77    3.3    40      6.7   992.9    0.00       0    60.0
  60   20:00   51.8    77    2.8    47      5.8   992.9    0.00       0    60.0
  60   20:10   51.5    78    2.5    59      5.9   992.9    0.00       0    60.0
  60   20:20   51.6    77    2.6    82      6.6   992.9    0.00       0    60.0
  60   20:30   50.4    78    5.4    71      9.1   992.9    0.00       0    60.0
  60   20:40   49.6    80    8.0    56     10.6   992.9    0.00       0    59.9
  60   20:50   49.2    81    8.3    61     10.7   992.9    0.00       0    59.9
  60   21:00   49.4    80    8.9    53     11.2   992.9    0.00       0    59.8
  60   21:10   49.7    79    9.1    60     11.3   992.9    0.00       0    59.8
  60   21:20   49.4    78    8.6    59     11.0   992.9    0.00       0    59.8
  60   21:30   50.6    71    9.2    50     11.4   992.9    0.00       0    59.7
  60   21:40   50.4    71    9.9    57     12.7   992.9    0.00       0    59.6
  60   21:50   49.9    72    8.5    65     11.0   992.9    0.00       0    59.6
  60   22:00   50.4    69    9.0    56     11.4   992.9    0.00       0    59.6
  60   22:10   50.3    69    9.5    56     11.5   992.6    0.00       0    59.5
  60   22:20   50.8    67    8.8    54     11.7   992.6    0.00       0    59.4
  60   22:30   50.7    67    8.1    62     10.7   992.6    0.00       0    59.4
  60   22:40   50.6    67    7.7    60     10.7   992.6    0.00       0    59.3
  60   22:50   50.6    66    6.1    64      8.6   992.6    0.00       0    59.2
  60   23:00   50.6    66    5.0    69      8.0   992.6    0.00       0    59.2
  60   23:10   50.6    66    6.1    43      8.7   992.6    0.00       0    59.1
  60   23:20   50.6    66    6.7    57      9.1   992.6    0.00       0    59.0
  60   23:30   50.3    66    8.8    64     11.2   992.2    0.00       0    59.0
  60   23:40   50.8    65    9.3    57     12.9   992.2    0.00       0    58.9
  60   23:50   51.0    64    9.2    53     12.1   992.2    0.00       0    58.8
  61    0:00   51.3    63    8.8    57     11.8   992.2    0.00       0    58.7
  61    0:10   51.1    63    6.8    61     10.4   992.2    0.00       0    58.7
  61    0:20   50.4    65    3.4    84      6.4   992.2    0.00       0    58.6
  61    0:30   50.1    66    3.5    60      6.1   992.2    0.00       0    58.5
  61    0:40   50.0    66    6.1    42      9.8   992.2    0.00       0    58.5
  61    0:50   50.2    65    7.8    50     10.5   991.9    0.00       0    58.4
  61    1:00   50.8    63    8.2    44     11.2   991.9    0.00       0    58.4
  61    1:10   50.9    63    7.5    49      9.3   991.9    0.00       0    58.3
  61    1:20   50.9    62    7.4    38      9.8   991.9    0.00       0    58.2
  61    1:30   50.4    64    6.8    44      8.9   991.9    0.00       0    58.1
  61    1:40   50.6    63    6.8    52      8.9   991.5    0.00       0    58.1
  61    1:50   49.9    65    7.2    60      9.5   991.5    0.00       0    58.0
  61    2:00   49.5    66    6.8    45      9.1   991.5    0.00       0    57.9
  61    2:10   49.6    66    7.2    44      9.3   991.5    0.00       0    57.9
  61    2:20   49.8    65    7.4    40      9.3   991.2    0.00       0    57.8
  61    2:30   49.9    65    7.9    36     10.0   991.2    0.00       0    57.7
  61    2:40   50.1    64    6.6    39      8.3   990.9    0.00       0    57.7
  61    2:50   50.1    64    6.3    39      7.8   990.9    0.00       0    57.6
  61    3:00   50.2    64    5.8    40      7.2   990.5    0.00       0    57.5
  61    3:10   49.9    65    6.3    56      8.0   990.5    0.00       0    57.5
  61    3:20   49.9    66    5.2    61      6.9   990.2    0.00       0    57.4
  61    3:30   50.2    65    5.2    54      7.5   990.2    0.00       0    57.3

Return to Whale Point graphs page.


Western Regional Climate Center,wrcc@dri.edu